Time;durP1;ratioP1;P1;durP2;ratioP2;P2;SDS_P1;SDS_P2;PMS_P1;PMS_P2;Temp;Humidity;BMP_temperature;BMP_pressure;BME280_temperature;BME280_humidity;BME280_pressure;Samples;Min_cycle;Max_cycle;Signal;HPM_P1;HPM_P2
2020/12/18 00:00:05;;;;;;;31.13;11.60;;;;;;;;;;4948962;29;20119;-82
2020/12/18 00:02:31;;;;;;;22.30;12.68;;;;;;;;;;4947420;29;20044;-81
2020/12/18 00:05:00;;;;;;;21.15;11.65;;;;;;;;;;4940741;29;20051;-81
2020/12/18 00:07:33;;;;;;;27.42;11.10;;;;;;;;;;4939196;29;20059;-81
2020/12/18 00:09:59;;;;;;;18.17;10.52;;;;;;;;;;4937595;29;20051;-80
2020/12/18 00:12:25;;;;;;;19.90;11.63;;;;;;;;;;4942411;29;20110;-81
2020/12/18 00:14:52;;;;;;;18.67;10.30;;;;;;;;;;4944839;29;20137;-81
2020/12/18 00:17:18;;;;;;;24.13;10.15;;;;;;;;;;4942690;29;20079;-81
2020/12/18 00:19:44;;;;;;;16.88;10.25;;;;;;;;;;4942614;29;20294;-81
2020/12/18 00:22:10;;;;;;;21.45;8.93;;;;;;;;;;4940494;29;20160;-81
2020/12/18 00:24:36;;;;;;;21.30;9.57;;;;;;;;;;4940397;29;20052;-81
2020/12/18 00:27:02;;;;;;;17.90;9.73;;;;;;;;;;4940522;29;20079;-81
2020/12/18 00:29:28;;;;;;;18.55;10.07;;;;;;;;;;4925632;29;20044;-82
2020/12/18 00:31:54;;;;;;;17.35;9.13;;;;;;;;;;4950167;29;20142;-81
2020/12/18 00:34:21;;;;;;;21.67;9.80;;;;;;;;;;4933000;29;20189;-82
2020/12/18 00:36:53;;;;;;;15.32;9.43;;;;;;;;;;4951905;29;20111;-81
2020/12/18 00:39:20;;;;;;;13.65;8.63;;;;;;;;;;4953494;29;20423;-81
2020/12/18 00:41:55;;;;;;;13.13;7.85;;;;;;;;;;4945245;29;20052;-81
2020/12/18 00:44:21;;;;;;;13.90;8.27;;;;;;;;;;4938751;29;20052;-81
2020/12/18 00:46:47;;;;;;;17.25;8.77;;;;;;;;;;4939194;29;20052;-81
2020/12/18 00:49:14;;;;;;;21.38;8.68;;;;;;;;;;4936614;29;20377;-82
2020/12/18 00:51:40;;;;;;;16.90;8.88;;;;;;;;;;4920904;29;20066;-81
2020/12/18 00:54:06;;;;;;;22.45;9.23;;;;;;;;;;4920754;29;20067;-81
2020/12/18 00:56:32;;;;;;;21.23;9.90;;;;;;;;;;4923841;29;20043;-83
2020/12/18 00:58:59;;;;;;;17.77;9.38;;;;;;;;;;4922941;29;20086;-82
2020/12/18 01:01:25;;;;;;;21.23;9.52;;;;;;;;;;4920947;29;20051;-81
2020/12/18 01:03:54;;;;;;;17.05;9.18;;;;;;;;;;4938971;29;20044;-81
2020/12/18 01:06:27;;;;;;;20.27;8.90;;;;;;;;;;4941411;29;20352;-82
2020/12/18 01:08:54;;;;;;;18.52;9.82;;;;;;;;;;4941572;29;20090;-81
2020/12/18 01:11:20;;;;;;;19.98;9.10;;;;;;;;;;4940180;29;20140;-82
2020/12/18 01:13:47;;;;;;;18.15;10.25;;;;;;;;;;4940666;29;20079;-83
2020/12/18 01:16:19;;;;;;;22.73;9.35;;;;;;;;;;4941544;29;20071;-83
2020/12/18 01:18:45;;;;;;;21.75;10.43;;;;;;;;;;4943349;29;20470;-83
2020/12/18 01:21:27;;;;;;;20.00;9.85;;;;;;;;;;4954213;29;20076;-83
2020/12/18 01:23:53;;;;;;;21.40;9.82;;;;;;;;;;4954457;29;20111;-83
2020/12/18 01:26:20;;;;;;;18.58;9.77;;;;;;;;;;4954207;29;20062;-84
2020/12/18 01:28:48;;;;;;;22.05;9.07;;;;;;;;;;4948266;29;20074;-83
2020/12/18 01:31:14;;;;;;;23.27;8.90;;;;;;;;;;4942740;29;20056;-83
2020/12/18 01:33:40;;;;;;;21.38;8.15;;;;;;;;;;4941758;29;20146;-83
2020/12/18 01:36:08;;;;;;;16.05;8.80;;;;;;;;;;4942821;29;20043;-83
2020/12/18 01:38:34;;;;;;;18.73;9.48;;;;;;;;;;4942780;29;20055;-83
2020/12/18 01:41:01;;;;;;;22.90;10.50;;;;;;;;;;4944309;29;20050;-83
2020/12/18 01:43:27;;;;;;;19.42;8.70;;;;;;;;;;4943035;29;20327;-83
2020/12/18 01:45:58;;;;;;;19.02;9.00;;;;;;;;;;4928134;29;20317;-83
2020/12/18 01:48:25;;;;;;;21.92;10.02;;;;;;;;;;4949688;29;20111;-83
2020/12/18 01:50:51;;;;;;;16.17;8.77;;;;;;;;;;4958176;29;20043;-83
2020/12/18 01:53:17;;;;;;;17.17;9.05;;;;;;;;;;4957890;29;20051;-83
2020/12/18 01:55:44;;;;;;;20.40;8.07;;;;;;;;;;4959592;29;20115;-83
2020/12/18 01:58:41;;;;;;;18.50;9.15;;;;;;;;;;4959012;28;20051;-83
2020/12/18 02:01:08;;;;;;;21.58;8.90;;;;;;;;;;4951972;29;20055;-83
2020/12/18 02:03:35;;;;;;;19.20;10.30;;;;;;;;;;4945659;29;20083;-83
2020/12/18 02:06:09;;;;;;;18.73;9.63;;;;;;;;;;4929110;29;20057;-83
2020/12/18 02:08:35;;;;;;;19.15;10.20;;;;;;;;;;4928080;29;20101;-83
2020/12/18 02:11:03;;;;;;;18.33;9.60;;;;;;;;;;4943728;29;20059;-83
2020/12/18 02:13:30;;;;;;;18.90;9.82;;;;;;;;;;4942572;29;20066;-83
2020/12/18 02:15:56;;;;;;;20.40;10.95;;;;;;;;;;4942184;29;20070;-83
2020/12/18 02:18:23;;;;;;;21.02;9.30;;;;;;;;;;4940330;29;20054;-82
2020/12/18 02:20:56;;;;;;;21.45;11.00;;;;;;;;;;4942105;29;20067;-83
2020/12/18 02:23:22;;;;;;;23.00;9.75;;;;;;;;;;4926232;29;20090;-83
2020/12/18 02:26:07;;;;;;;23.67;11.60;;;;;;;;;;4944831;29;20160;-83
2020/12/18 02:28:37;;;;;;;23.73;9.48;;;;;;;;;;4949096;29;20035;-82
2020/12/18 02:31:09;;;;;;;18.00;10.60;;;;;;;;;;4942923;28;20086;-82
2020/12/18 02:33:35;;;;;;;26.85;11.15;;;;;;;;;;4950060;29;20062;-83
2020/12/18 02:36:04;;;;;;;23.45;11.73;;;;;;;;;;4948351;29;20464;-83
2020/12/18 02:38:37;;;;;;;16.38;10.05;;;;;;;;;;4926715;29;20083;-83
2020/12/18 02:41:03;;;;;;;20.30;10.93;;;;;;;;;;4942909;29;20065;-83
2020/12/18 02:43:30;;;;;;;26.02;11.90;;;;;;;;;;4942189;29;20115;-83
2020/12/18 02:45:57;;;;;;;22.92;12.45;;;;;;;;;;4941966;29;20103;-84
2020/12/18 02:48:29;;;;;;;23.67;11.68;;;;;;;;;;4941790;29;20052;-84
2020/12/18 02:50:55;;;;;;;26.92;11.77;;;;;;;;;;4941623;29;20090;-83
2020/12/18 02:53:22;;;;;;;22.60;13.05;;;;;;;;;;4940771;29;20095;-84
2020/12/18 02:55:52;;;;;;;21.35;12.40;;;;;;;;;;4942393;29;20068;-83
2020/12/18 02:58:18;;;;;;;28.38;13.25;;;;;;;;;;4949187;28;20105;-83
2020/12/18 03:00:44;;;;;;;25.42;12.65;;;;;;;;;;4954692;28;20091;-83
2020/12/18 03:03:11;;;;;;;33.95;13.95;;;;;;;;;;4948266;29;20059;-84
2020/12/18 03:05:37;;;;;;;21.13;12.25;;;;;;;;;;4941679;29;20056;-84
2020/12/18 03:08:03;;;;;;;24.40;15.25;;;;;;;;;;4927842;29;20051;-84
2020/12/18 03:10:30;;;;;;;24.27;14.60;;;;;;;;;;4932334;29;20052;-83
2020/12/18 03:12:56;;;;;;;23.10;13.23;;;;;;;;;;4960407;28;20063;-83
2020/12/18 03:15:23;;;;;;;31.33;15.27;;;;;;;;;;4955956;29;20080;-84
2020/12/18 03:17:49;;;;;;;29.45;14.30;;;;;;;;;;4933913;29;20119;-84
2020/12/18 03:20:15;;;;;;;28.08;15.38;;;;;;;;;;4948859;29;20107;-84
2020/12/18 03:22:48;;;;;;;30.77;14.05;;;;;;;;;;4933752;29;20138;-84
2020/12/18 03:25:14;;;;;;;29.67;15.00;;;;;;;;;;4932502;29;20504;-83
2020/12/18 03:27:46;;;;;;;30.65;15.73;;;;;;;;;;4933498;29;20052;-83
2020/12/18 03:30:12;;;;;;;24.38;14.60;;;;;;;;;;4931929;29;20058;-84
2020/12/18 03:32:49;;;;;;;30.75;16.17;;;;;;;;;;4931767;29;20060;-83
2020/12/18 03:35:15;;;;;;;28.83;16.38;;;;;;;;;;4948321;29;20116;-84
2020/12/18 03:37:41;;;;;;;30.27;15.85;;;;;;;;;;4948345;29;20051;-83
2020/12/18 03:40:09;;;;;;;33.78;16.27;;;;;;;;;;4946751;29;20135;-83
2020/12/18 03:42:45;;;;;;;35.60;17.33;;;;;;;;;;4944613;29;20062;-84
2020/12/18 03:45:11;;;;;;;32.83;18.25;;;;;;;;;;4942889;29;20052;-83
2020/12/18 03:47:40;;;;;;;24.98;16.25;;;;;;;;;;4945028;29;20099;-83
2020/12/18 03:50:09;;;;;;;32.95;17.65;;;;;;;;;;4944864;29;20070;-83
2020/12/18 03:52:35;;;;;;;29.58;18.00;;;;;;;;;;4944054;29;20047;-84
2020/12/18 03:55:01;;;;;;;32.72;18.40;;;;;;;;;;4943647;29;20138;-83
2020/12/18 03:57:27;;;;;;;39.78;18.65;;;;;;;;;;4927785;29;20051;-84
2020/12/18 03:59:54;;;;;;;37.33;19.13;;;;;;;;;;4944939;29;20058;-83
2020/12/18 04:02:20;;;;;;;36.75;18.65;;;;;;;;;;4945473;29;20056;-83
2020/12/18 04:04:46;;;;;;;34.97;19.10;;;;;;;;;;4945332;29;20436;-83
2020/12/18 04:07:13;;;;;;;31.95;18.25;;;;;;;;;;4945404;29;20059;-83
2020/12/18 04:09:40;;;;;;;48.17;19.15;;;;;;;;;;4945057;29;20118;-84
2020/12/18 04:12:07;;;;;;;32.90;20.38;;;;;;;;;;4944141;29;20122;-84
2020/12/18 04:14:34;;;;;;;32.40;18.35;;;;;;;;;;4943750;29;20060;-84
2020/12/18 04:17:01;;;;;;;31.77;18.38;;;;;;;;;;4943541;29;20082;-84
2020/12/18 04:19:28;;;;;;;40.97;19.20;;;;;;;;;;4944279;29;20047;-83
2020/12/18 04:21:54;;;;;;;28.33;17.85;;;;;;;;;;4951232;29;20075;-84
2020/12/18 04:24:30;;;;;;;39.65;19.23;;;;;;;;;;4927037;29;20364;-83
2020/12/18 04:26:56;;;;;;;33.58;18.70;;;;;;;;;;4927162;29;20202;-83
2020/12/18 04:29:22;;;;;;;38.15;18.70;;;;;;;;;;4943382;29;20055;-84
2020/12/18 04:31:51;;;;;;;32.35;19.52;;;;;;;;;;4940670;29;20059;-83
2020/12/18 04:34:18;;;;;;;30.60;18.50;;;;;;;;;;4943923;29;20354;-83
2020/12/18 04:36:44;;;;;;;32.90;19.48;;;;;;;;;;4925892;29;20115;-83
2020/12/18 04:39:10;;;;;;;30.10;17.70;;;;;;;;;;4943274;29;20052;-83
2020/12/18 04:41:40;;;;;;;35.63;18.23;;;;;;;;;;4926584;29;20062;-85
2020/12/18 04:44:06;;;;;;;38.22;20.40;;;;;;;;;;4943575;29;20541;-84
2020/12/18 04:46:37;;;;;;;35.80;19.00;;;;;;;;;;4942472;29;20048;-83
2020/12/18 04:49:04;;;;;;;34.80;19.80;;;;;;;;;;4943225;29;20158;-83
2020/12/18 04:51:43;;;;;;;35.95;20.48;;;;;;;;;;4943135;29;20090;-84
2020/12/18 04:54:10;;;;;;;33.10;18.13;;;;;;;;;;4925001;29;20056;-84
2020/12/18 04:56:37;;;;;;;38.25;20.65;;;;;;;;;;4926567;29;20055;-83
2020/12/18 04:59:11;;;;;;;36.13;19.70;;;;;;;;;;4927101;29;20058;-83
2020/12/18 05:01:37;;;;;;;33.92;18.67;;;;;;;;;;4947884;29;20150;-83
2020/12/18 05:04:06;;;;;;;43.70;20.85;;;;;;;;;;4958793;29;20070;-83
2020/12/18 05:06:32;;;;;;;44.78;21.52;;;;;;;;;;4960072;29;20054;-83
2020/12/18 05:08:58;;;;;;;43.22;21.15;;;;;;;;;;4944387;29;20061;-83
2020/12/18 05:11:25;;;;;;;49.05;22.67;;;;;;;;;;4945460;29;20384;-84
2020/12/18 05:13:55;;;;;;;39.00;21.77;;;;;;;;;;4962853;29;20090;-84
2020/12/18 05:16:26;;;;;;;42.15;22.35;;;;;;;;;;4926676;29;20067;-83
2020/12/18 05:18:55;;;;;;;35.63;21.40;;;;;;;;;;4945327;29;20044;-84
2020/12/18 05:21:21;;;;;;;48.85;22.80;;;;;;;;;;4956447;29;20077;-83
2020/12/18 05:24:00;;;;;;;41.67;21.88;;;;;;;;;;4959803;29;20131;-84
2020/12/18 05:26:30;;;;;;;45.05;22.98;;;;;;;;;;4943117;29;20052;-85
2020/12/18 05:29:15;;;;;;;54.50;24.95;;;;;;;;;;4943576;29;20052;-85
2020/12/18 05:31:47;;;;;;;47.10;23.45;;;;;;;;;;4933608;29;20059;-84
2020/12/18 05:34:14;;;;;;;42.90;21.17;;;;;;;;;;4950942;28;20052;-84
2020/12/18 05:36:40;;;;;;;46.13;23.15;;;;;;;;;;4942614;29;20562;-84
2020/12/18 05:39:06;;;;;;;46.55;22.20;;;;;;;;;;4939326;29;20086;-84
2020/12/18 05:41:33;;;;;;;43.45;23.52;;;;;;;;;;4936834;29;20302;-84
2020/12/18 05:44:04;;;;;;;53.85;24.48;;;;;;;;;;4933892;29;20108;-85
2020/12/18 05:46:34;;;;;;;42.25;23.63;;;;;;;;;;4937200;29;20058;-85
2020/12/18 05:49:10;;;;;;;53.00;23.85;;;;;;;;;;4932173;29;20052;-84
2020/12/18 05:51:37;;;;;;;49.13;23.70;;;;;;;;;;4944129;29;20118;-84
2020/12/18 05:54:23;;;;;;;40.95;23.77;;;;;;;;;;4928689;29;20055;-84
2020/12/18 05:57:13;;;;;;;38.05;22.58;;;;;;;;;;4936011;29;20137;-86
2020/12/18 05:59:40;;;;;;;;;;;;;;;;;;4961027;29;20090;-84
2020/12/18 06:02:11;;;;;;;39.72;22.33;;;;;;;;;;4946936;29;19923;-84
2020/12/18 06:04:43;;;;;;;43.65;23.13;;;;;;;;;;4938459;29;20419;-85
2020/12/18 06:07:14;;;;;;;45.15;22.98;;;;;;;;;;4937695;29;20047;-84
2020/12/18 06:09:59;;;;;;;44.55;23.27;;;;;;;;;;4932093;29;20063;-84
2020/12/18 06:12:28;;;;;;;44.55;23.13;;;;;;;;;;4938581;29;20073;-84
2020/12/18 06:15:02;;;;;;;42.60;23.40;;;;;;;;;;4944727;29;20057;-84
2020/12/18 06:17:37;;;;;;;44.28;22.25;;;;;;;;;;4958243;29;20051;-84
2020/12/18 06:20:17;;;;;;;38.95;22.63;;;;;;;;;;4947729;29;20348;-85
2020/12/18 06:22:58;;;;;;;43.40;23.17;;;;;;;;;;4927924;29;20044;-84
2020/12/18 06:25:31;;;;;;;41.35;21.10;;;;;;;;;;4934065;29;20048;-83
2020/12/18 06:28:06;;;;;;;42.35;23.20;;;;;;;;;;4921743;29;20048;-84
2020/12/18 06:30:57;;;;;;;43.45;21.52;;;;;;;;;;4923743;29;20047;-85
2020/12/18 06:33:42;;;;;;;41.75;20.95;;;;;;;;;;4902917;29;20363;-85
2020/12/18 06:39:51;;;;;;;41.10;20.05;;;;;;;;;;4909718;29;20052;-84
2020/12/18 06:42:58;;;;;;;34.75;21.20;;;;;;;;;;4918789;29;20112;-84
2020/12/18 06:45:31;;;;;;;38.25;21.80;;;;;;;;;;4915518;29;20059;-84
2020/12/18 06:47:58;;;;;;;47.90;22.67;;;;;;;;;;4919365;29;20099;-83
2020/12/18 06:50:35;;;;;;;40.00;20.83;;;;;;;;;;4941490;29;20052;-85
2020/12/18 06:53:16;;;;;;;38.22;21.30;;;;;;;;;;4946555;29;20060;-84
2020/12/18 06:55:47;;;;;;;37.15;21.42;;;;;;;;;;4956406;28;20064;-85
2020/12/18 06:58:28;;;;;;;38.22;21.08;;;;;;;;;;4946857;28;20056;-85
2020/12/18 07:01:03;;;;;;;38.40;21.75;;;;;;;;;;4952912;29;20059;-84
2020/12/18 07:03:55;;;;;;;40.85;22.15;;;;;;;;;;4925222;29;20051;-84
2020/12/18 07:06:34;;;;;;;37.90;21.70;;;;;;;;;;4938825;29;20063;-84
2020/12/18 07:09:08;;;;;;;42.58;21.55;;;;;;;;;;4938334;29;20096;-84
2020/12/18 07:11:42;;;;;;;42.30;22.92;;;;;;;;;;4923809;29;20078;-84
2020/12/18 07:14:16;;;;;;;48.17;22.23;;;;;;;;;;4923707;29;20048;-84
2020/12/18 07:16:57;;;;;;;37.15;21.45;;;;;;;;;;4933143;29;20115;-84
2020/12/18 07:19:30;;;;;;;39.90;20.13;;;;;;;;;;4937274;29;20076;-84
2020/12/18 07:22:08;;;;;;;37.35;19.77;;;;;;;;;;4939554;29;20054;-84
2020/12/18 07:24:46;;;;;;;43.33;20.85;;;;;;;;;;4924541;29;20111;-85
2020/12/18 07:27:27;;;;;;;35.75;19.33;;;;;;;;;;4920976;29;20044;-84
2020/12/18 07:30:29;;;;;;;41.35;19.95;;;;;;;;;;4925058;29;20107;-84
2020/12/18 07:33:12;;;;;;;41.50;19.65;;;;;;;;;;4925417;29;20068;-84
2020/12/18 07:36:01;;;;;;;36.42;19.27;;;;;;;;;;4906672;29;20477;-84
2020/12/18 07:38:34;;;;;;;37.03;19.52;;;;;;;;;;4935738;29;20051;-83
2020/12/18 07:41:20;;;;;;;34.20;19.42;;;;;;;;;;4919364;29;20101;-84
2020/12/18 07:43:46;;;;;;;51.45;19.67;;;;;;;;;;4926468;29;20217;-86
2020/12/18 07:46:17;;;;;;;40.50;19.50;;;;;;;;;;4932779;28;20056;-85
2020/12/18 07:48:53;;;;;;;34.30;17.80;;;;;;;;;;4919573;29;20051;-87
2020/12/18 07:51:32;;;;;;;32.33;18.63;;;;;;;;;;4924713;29;20048;-85
2020/12/18 07:54:16;;;;;;;31.15;17.52;;;;;;;;;;4930341;29;20571;-85
2020/12/18 07:56:45;;;;;;;32.17;17.23;;;;;;;;;;4927406;29;20048;-86
2020/12/18 07:59:25;;;;;;;31.63;16.45;;;;;;;;;;4939220;29;20112;-82
2020/12/18 08:01:57;;;;;;;29.85;15.68;;;;;;;;;;4931080;29;20088;-83
2020/12/18 08:04:27;;;;;;;35.35;16.60;;;;;;;;;;4920063;29;20080;-85
2020/12/18 08:06:58;;;;;;;31.63;15.43;;;;;;;;;;4920715;29;20126;-85
2020/12/18 08:09:29;;;;;;;30.80;14.80;;;;;;;;;;4919862;29;20052;-85
2020/12/18 08:12:01;;;;;;;29.27;14.50;;;;;;;;;;4915460;29;20052;-84
2020/12/18 08:14:43;;;;;;;26.95;11.57;;;;;;;;;;4916609;29;20052;-84
2020/12/18 08:17:24;;;;;;;31.15;13.15;;;;;;;;;;4911762;29;20353;-84
2020/12/18 08:19:59;;;;;;;17.20;11.63;;;;;;;;;;4904013;29;20040;-84
2020/12/18 08:22:41;;;;;;;20.55;10.07;;;;;;;;;;4918626;29;20047;-84
2020/12/18 08:25:27;;;;;;;18.23;9.15;;;;;;;;;;4937151;29;20040;-84
2020/12/18 08:28:02;;;;;;;18.83;9.00;;;;;;;;;;4881046;29;20053;-83
2020/12/18 08:30:37;;;;;;;13.75;8.43;;;;;;;;;;4880673;29;20081;-83
2020/12/18 08:33:08;;;;;;;14.73;7.30;;;;;;;;;;4886486;29;20056;-85
2020/12/18 08:35:43;;;;;;;14.85;6.10;;;;;;;;;;4890775;29;20056;-84
2020/12/18 08:38:15;;;;;;;18.13;5.53;;;;;;;;;;4883314;29;20085;-84
2020/12/18 08:40:46;;;;;;;10.43;5.15;;;;;;;;;;4863518;29;20570;-82
2020/12/18 08:43:20;;;;;;;10.45;4.68;;;;;;;;;;4880937;29;20145;-84
2020/12/18 08:45:47;;;;;;;7.60;4.18;;;;;;;;;;4858200;29;20048;-81
2020/12/18 08:48:46;;;;;;;12.27;4.13;;;;;;;;;;4882871;29;20056;-82
2020/12/18 08:51:20;;;;;;;9.38;3.88;;;;;;;;;;4855488;29;20116;-82
2020/12/18 08:54:42;;;;;;;11.25;3.90;;;;;;;;;;4871839;29;20051;-82
2020/12/18 08:57:22;;;;;;;13.80;3.65;;;;;;;;;;4889947;29;20089;-81
2020/12/18 08:59:59;;;;;;;10.80;4.03;;;;;;;;;;4879120;29;20180;-81
2020/12/18 09:03:04;;;;;;;11.80;3.95;;;;;;;;;;4882096;29;20354;-81
2020/12/18 09:05:46;;;;;;;11.63;3.75;;;;;;;;;;4872510;29;20049;-81
2020/12/18 09:08:20;;;;;;;5.60;3.03;;;;;;;;;;4865001;29;20099;-81
2020/12/18 09:10:53;;;;;;;9.18;3.13;;;;;;;;;;4872079;29;20117;-80
2020/12/18 09:13:23;;;;;;;6.13;3.40;;;;;;;;;;4877521;29;20132;-82
2020/12/18 09:16:13;;;;;;;10.05;3.50;;;;;;;;;;4858647;29;20053;-81
2020/12/18 09:19:15;;;;;;;9.88;2.83;;;;;;;;;;4909509;29;20135;-81
2020/12/18 09:21:44;;;;;;;6.35;2.55;;;;;;;;;;4910838;29;21556;-82
2020/12/18 09:24:24;;;;;;;7.95;2.90;;;;;;;;;;4915685;29;20045;-81
2020/12/18 09:26:52;;;;;;;9.70;3.20;;;;;;;;;;4915787;29;20051;-82
2020/12/18 09:29:24;;;;;;;11.32;2.60;;;;;;;;;;4916058;29;20052;-82
2020/12/18 09:32:07;;;;;;;6.80;2.92;;;;;;;;;;4904082;29;20122;-81
2020/12/18 09:34:34;;;;;;;6.75;2.78;;;;;;;;;;4920315;29;20052;-81
2020/12/18 09:37:11;;;;;;;8.80;3.22;;;;;;;;;;4923442;29;20119;-81
2020/12/18 09:39:50;;;;;;;9.73;3.15;;;;;;;;;;4927986;29;20228;-81
2020/12/18 09:42:21;;;;;;;6.13;2.70;;;;;;;;;;4920193;29;20047;-81
2020/12/18 09:45:03;;;;;;;5.25;2.38;;;;;;;;;;4912211;29;20076;-81
2020/12/18 09:47:32;;;;;;;6.05;2.35;;;;;;;;;;4917585;29;20054;-81
2020/12/18 09:50:02;;;;;;;9.25;2.53;;;;;;;;;;4913395;29;20048;-81
2020/12/18 09:52:29;;;;;;;10.73;2.75;;;;;;;;;;4918327;29;20052;-81
2020/12/18 09:54:59;;;;;;;9.02;2.90;;;;;;;;;;4919230;29;20171;-81
2020/12/18 09:57:25;;;;;;;10.65;2.47;;;;;;;;;;4935433;29;20476;-81
2020/12/18 10:00:12;;;;;;;6.72;2.30;;;;;;;;;;4923466;29;20104;-82
2020/12/18 10:03:10;;;;;;;6.88;2.50;;;;;;;;;;4939080;29;20056;-81
2020/12/18 10:05:51;;;;;;;;;;;;;;;;;;4938284;29;20684;-82
2020/12/18 10:08:21;;;;;;;7.32;2.28;;;;;;;;;;4952905;29;19919;-81
2020/12/18 10:11:17;;;;;;;5.45;2.35;;;;;;;;;;4915142;29;20266;-82
2020/12/18 10:13:48;;;;;;;5.57;2.45;;;;;;;;;;4914655;29;20400;-82
2020/12/18 10:16:33;;;;;;;10.32;2.90;;;;;;;;;;4920059;29;20052;-81
2020/12/18 10:19:16;;;;;;;7.03;2.58;;;;;;;;;;4921840;29;20398;-82
2020/12/18 10:21:49;;;;;;;10.77;2.60;;;;;;;;;;4949423;28;20067;-81
2020/12/18 10:24:42;;;;;;;4.75;2.20;;;;;;;;;;4949406;28;20083;-82
2020/12/18 10:27:18;;;;;;;11.88;2.85;;;;;;;;;;4934445;29;20129;-81
2020/12/18 10:29:45;;;;;;;4.65;2.10;;;;;;;;;;4929967;29;20047;-82
2020/12/18 10:32:16;;;;;;;6.90;2.40;;;;;;;;;;4935342;29;20158;-82
2020/12/18 10:35:09;;;;;;;8.60;2.30;;;;;;;;;;4940457;28;20269;-81
2020/12/18 10:37:47;;;;;;;8.18;2.65;;;;;;;;;;4941239;28;20036;-81
2020/12/18 10:40:36;;;;;;;6.43;2.20;;;;;;;;;;4933432;29;20052;-81
2020/12/18 10:43:03;;;;;;;8.95;2.78;;;;;;;;;;4938914;29;20044;-81
2020/12/18 10:45:30;;;;;;;5.78;2.53;;;;;;;;;;4932962;29;20261;-81
2020/12/18 10:51:07;;;;;;;7.40;2.35;;;;;;;;;;4913988;29;20067;-82
2020/12/18 10:53:43;;;;;;;9.45;2.28;;;;;;;;;;4916456;29;20170;-81
2020/12/18 10:56:51;;;;;;;4.70;2.25;;;;;;;;;;4932962;29;20133;-81
2020/12/18 10:59:29;;;;;;;8.02;2.45;;;;;;;;;;4916167;29;20134;-81
2020/12/18 11:01:58;;;;;;;7.55;2.53;;;;;;;;;;4918616;29;20047;-80
2020/12/18 11:04:26;;;;;;;4.68;1.83;;;;;;;;;;4933824;29;20051;-81
2020/12/18 11:06:54;;;;;;;3.85;1.98;;;;;;;;;;4935933;29;20466;-81
2020/12/18 11:09:25;;;;;;;8.85;2.25;;;;;;;;;;4937477;29;20043;-81
2020/12/18 11:12:27;;;;;;;;;;;;;;;;;;;;;
2020/12/18 11:15:06;;;;;;;8.00;2.65;;;;;;;;;;4931764;29;20058;-82
2020/12/18 11:17:39;;;;;;;6.82;2.00;;;;;;;;;;4934954;29;20052;-82
2020/12/18 11:20:17;;;;;;;8.77;3.13;;;;;;;;;;4933948;29;20281;-81
2020/12/18 11:22:49;;;;;;;9.88;2.28;;;;;;;;;;4934549;29;20054;-81
2020/12/18 11:25:18;;;;;;;6.82;2.72;;;;;;;;;;4936411;29;20818;-81
2020/12/18 11:27:47;;;;;;;3.40;1.85;;;;;;;;;;4915847;29;20046;-81
2020/12/18 11:30:21;;;;;;;11.70;2.72;;;;;;;;;;4922447;29;20106;-81
2020/12/18 11:33:27;;;;;;;7.20;1.88;;;;;;;;;;4936525;29;20032;-81
2020/12/18 11:36:17;;;;;;;6.22;2.08;;;;;;;;;;4924108;29;20047;-81
2020/12/18 11:38:57;;;;;;;6.55;1.88;;;;;;;;;;4942119;29;20059;-81
2020/12/18 11:41:29;;;;;;;10.27;2.30;;;;;;;;;;4934239;29;20058;-81
2020/12/18 11:44:05;;;;;;;7.70;2.28;;;;;;;;;;4936822;29;20344;-81
2020/12/18 11:46:33;;;;;;;6.30;2.40;;;;;;;;;;4936220;29;20043;-81
2020/12/18 11:49:15;;;;;;;5.55;1.80;;;;;;;;;;4940105;29;20142;-81
2020/12/18 11:51:44;;;;;;;9.02;2.58;;;;;;;;;;4934097;29;20060;-81
2020/12/18 11:54:20;;;;;;;4.70;1.80;;;;;;;;;;4935741;29;20392;-81
2020/12/18 11:56:58;;;;;;;7.70;2.13;;;;;;;;;;4941637;29;20623;-81
2020/12/18 11:59:26;;;;;;;6.22;1.98;;;;;;;;;;4939447;29;20047;-80
2020/12/18 12:02:00;;;;;;;9.93;2.03;;;;;;;;;;4921711;29;20051;-81
2020/12/18 12:04:27;;;;;;;6.45;2.28;;;;;;;;;;4937536;29;20083;-81
2020/12/18 12:06:55;;;;;;;6.70;2.15;;;;;;;;;;4923205;29;20110;-80
2020/12/18 12:09:25;;;;;;;7.93;2.45;;;;;;;;;;4936117;29;20063;-81
2020/12/18 12:11:59;;;;;;;9.20;1.95;;;;;;;;;;4937492;29;20347;-80
2020/12/18 12:14:37;;;;;;;8.63;2.42;;;;;;;;;;4933742;29;20054;-80
2020/12/18 12:17:15;;;;;;;6.65;2.03;;;;;;;;;;4929042;29;20059;-80
2020/12/18 12:19:47;;;;;;;6.88;2.28;;;;;;;;;;4914663;29;20073;-80
2020/12/18 12:22:28;;;;;;;7.95;2.20;;;;;;;;;;4935810;29;20047;-81
2020/12/18 12:25:27;;;;;;;6.35;2.55;;;;;;;;;;4936575;29;20056;-81
2020/12/18 12:28:02;;;;;;;7.30;2.40;;;;;;;;;;4940985;29;20044;-81
2020/12/18 12:30:44;;;;;;;7.90;2.28;;;;;;;;;;4930151;29;20048;-81
2020/12/18 12:33:28;;;;;;;9.48;1.80;;;;;;;;;;4931487;29;20056;-81
2020/12/18 12:36:07;;;;;;;5.88;2.00;;;;;;;;;;4920259;29;20419;-82
2020/12/18 12:38:37;;;;;;;4.97;1.77;;;;;;;;;;4919050;29;20047;-81
2020/12/18 12:41:21;;;;;;;9.57;2.67;;;;;;;;;;4933109;29;20409;-81
2020/12/18 12:44:08;;;;;;;5.03;1.98;;;;;;;;;;4929882;29;20549;-82
2020/12/18 12:46:52;;;;;;;7.95;1.95;;;;;;;;;;4943275;29;20051;-81
2020/12/18 12:49:27;;;;;;;7.07;2.25;;;;;;;;;;4924174;29;20050;-80
2020/12/18 12:52:02;;;;;;;10.20;2.17;;;;;;;;;;4922022;29;20617;-81
2020/12/18 12:54:43;;;;;;;7.80;2.25;;;;;;;;;;4933608;29;20110;-82
2020/12/18 12:57:18;;;;;;;10.52;1.95;;;;;;;;;;4939030;29;20432;-82
2020/12/18 12:59:53;;;;;;;5.68;1.83;;;;;;;;;;4941394;29;20057;-81
2020/12/18 13:02:22;;;;;;;8.07;1.73;;;;;;;;;;4926409;29;20039;-80
2020/12/18 13:05:02;;;;;;;6.85;1.55;;;;;;;;;;4931793;29;20285;-80
2020/12/18 13:07:30;;;;;;;10.57;2.10;;;;;;;;;;4938900;29;20051;-81
2020/12/18 13:10:02;;;;;;;8.10;1.63;;;;;;;;;;4939529;29;20043;-81
2020/12/18 13:12:53;;;;;;;;;;;;;;;;;;4932954;29;20048;-81
